Time;durP1;ratioP1;P1;durP2;ratioP2;P2;SDS_P1;SDS_P2;PMS_P1;PMS_P2;Temp;Humidity;BMP_temperature;BMP_pressure;BME280_temperature;BME280_humidity;BME280_pressure;Samples;Min_cycle;Max_cycle;Signal;HPM_P1;HPM_P2
2022/01/29 00:01:42;;;;;;;36.75;14.93;;;6.70;99.90;;;;;;5005425;28;20049;-47
2022/01/29 00:04:08;;;;;;;38.10;15.50;;;6.70;99.90;;;;;;5006514;28;20491;-46
2022/01/29 00:06:33;;;;;;;38.13;16.50;;;6.60;99.90;;;;;;5005529;28;20542;-47
2022/01/29 00:08:59;;;;;;;39.83;16.77;;;6.60;99.90;;;;;;5000136;28;20052;-47
2022/01/29 00:11:30;;;;;;;38.55;17.20;;;6.60;99.90;;;;;;4996702;28;20477;-47
2022/01/29 00:13:56;;;;;;;37.05;16.67;;;6.60;99.90;;;;;;5007091;28;20054;-49
2022/01/29 00:16:22;;;;;;;36.22;17.77;;;6.60;99.90;;;;;;5005890;28;20073;-48
2022/01/29 00:18:48;;;;;;;36.63;16.50;;;6.60;99.90;;;;;;4992888;28;20058;-47
2022/01/29 00:21:14;;;;;;;36.17;16.13;;;6.50;99.90;;;;;;4998575;28;20046;-46
2022/01/29 00:23:40;;;;;;;43.63;18.52;;;6.50;99.90;;;;;;4989394;28;20046;-49
2022/01/29 00:26:11;;;;;;;39.72;16.90;;;6.60;99.90;;;;;;5007861;28;20046;-48
2022/01/29 00:28:40;;;;;;;42.72;17.55;;;6.60;99.90;;;;;;5008041;28;20152;-48
2022/01/29 00:31:10;;;;;;;40.33;17.70;;;6.50;99.90;;;;;;5005053;28;20089;-46
2022/01/29 00:33:42;;;;;;;37.20;16.88;;;6.60;99.90;;;;;;5006983;28;20097;-49
2022/01/29 00:36:08;;;;;;;42.55;17.02;;;6.50;99.90;;;;;;4993307;28;20069;-47
2022/01/29 00:38:35;;;;;;;39.20;19.42;;;6.60;99.90;;;;;;5004948;28;20054;-48
2022/01/29 00:41:04;;;;;;;43.25;19.25;;;6.60;99.90;;;;;;5003508;28;20567;-47
2022/01/29 00:43:30;;;;;;;39.75;19.88;;;6.50;99.90;;;;;;5006270;28;20164;-47
2022/01/29 00:45:56;;;;;;;40.17;19.38;;;6.50;99.90;;;;;;5007615;28;20057;-47
2022/01/29 00:48:30;;;;;;;42.47;21.30;;;6.60;99.90;;;;;;5009386;28;20046;-47
2022/01/29 00:51:00;;;;;;;40.35;20.17;;;6.60;99.90;;;;;;4995759;28;20054;-48
2022/01/29 00:53:26;;;;;;;45.03;21.17;;;6.50;99.90;;;;;;5009756;28;20073;-46
2022/01/29 00:55:52;;;;;;;51.50;21.85;;;6.50;99.90;;;;;;5008124;28;20061;-47
2022/01/29 00:58:17;;;;;;;55.75;22.77;;;6.60;99.90;;;;;;5008954;28;20042;-47
2022/01/29 01:00:44;;;;;;;40.47;20.50;;;6.60;99.90;;;;;;5008376;28;20077;-46
2022/01/29 01:03:10;;;;;;;49.13;22.60;;;6.60;99.90;;;;;;5007348;28;20057;-48
2022/01/29 01:05:41;;;;;;;41.90;20.65;;;6.60;99.90;;;;;;5009831;28;20060;-49
2022/01/29 01:08:08;;;;;;;54.65;23.20;;;6.70;99.90;;;;;;5005869;28;20472;-47
2022/01/29 01:10:34;;;;;;;50.25;23.60;;;6.60;99.90;;;;;;5007763;28;20125;-48
2022/01/29 01:12:59;;;;;;;46.95;20.70;;;6.60;99.90;;;;;;5008821;28;20042;-48
2022/01/29 01:15:25;;;;;;;52.33;22.05;;;6.70;99.90;;;;;;5008649;28;20041;-46
2022/01/29 01:17:51;;;;;;;43.53;20.35;;;6.70;99.90;;;;;;5003235;28;20567;-47
2022/01/29 01:20:22;;;;;;;46.90;20.48;;;6.70;99.90;;;;;;5005443;28;20054;-47
2022/01/29 01:22:48;;;;;;;46.55;20.52;;;6.70;99.90;;;;;;5006870;28;20135;-49
2022/01/29 01:25:14;;;;;;;54.53;22.20;;;6.70;99.90;;;;;;5009197;28;20125;-47
2022/01/29 01:27:40;;;;;;;51.40;22.02;;;6.70;99.90;;;;;;5007538;28;20085;-47
2022/01/29 01:30:06;;;;;;;45.97;21.45;;;6.80;99.90;;;;;;5007358;28;20452;-48
2022/01/29 01:32:32;;;;;;;41.03;21.08;;;6.70;99.90;;;;;;4998879;28;20054;-49
2022/01/29 01:35:15;;;;;;;43.75;22.73;;;6.70;99.90;;;;;;5009314;28;20069;-50
2022/01/29 01:37:48;;;;;;;41.17;21.98;;;6.80;99.90;;;;;;5008137;28;20058;-48
2022/01/29 01:40:15;;;;;;;;;;;6.70;99.90;;;;;;5006960;28;20511;-49
2022/01/29 01:42:41;;;;;;;46.60;22.40;;;6.70;99.90;;;;;;5009986;28;19939;-48
2022/01/29 01:45:07;;;;;;;48.45;21.08;;;6.70;99.90;;;;;;5007292;28;20049;-47
2022/01/29 01:47:42;;;;;;;48.50;22.42;;;6.80;99.90;;;;;;5008055;28;20557;-46
2022/01/29 01:50:11;;;;;;;44.97;21.48;;;6.70;99.90;;;;;;5005095;28;20053;-47
2022/01/29 01:52:37;;;;;;;40.45;21.08;;;6.70;99.90;;;;;;5006968;28;20057;-47
2022/01/29 01:55:03;;;;;;;45.03;22.15;;;6.70;99.90;;;;;;5005347;28;20050;-47
2022/01/29 01:57:29;;;;;;;47.88;20.45;;;6.70;99.90;;;;;;5005824;28;20409;-47
2022/01/29 01:59:55;;;;;;;46.55;20.92;;;6.70;99.90;;;;;;5008722;28;20072;-46
2022/01/29 02:02:21;;;;;;;51.10;21.45;;;6.70;99.90;;;;;;5009540;28;20057;-46
2022/01/29 02:04:47;;;;;;;51.10;21.75;;;6.70;99.90;;;;;;4996054;28;20172;-48
2022/01/29 02:07:13;;;;;;;49.42;21.05;;;6.80;99.90;;;;;;5007928;28;20049;-47
2022/01/29 02:09:54;;;;;;;43.60;22.15;;;6.80;99.90;;;;;;4997081;28;20045;-47
2022/01/29 02:12:19;;;;;;;52.85;22.05;;;6.70;99.90;;;;;;5007877;28;20524;-47
2022/01/29 02:14:46;;;;;;;47.88;20.95;;;6.80;99.90;;;;;;5007280;28;20081;-47
2022/01/29 02:17:12;;;;;;;49.38;19.58;;;6.70;99.90;;;;;;5006378;28;20046;-47
2022/01/29 02:19:38;;;;;;;50.67;21.48;;;6.70;99.90;;;;;;4998717;28;20058;-47
2022/01/29 02:22:04;;;;;;;44.72;18.75;;;6.70;99.90;;;;;;5004384;28;20100;-46
2022/01/29 02:24:30;;;;;;;44.83;20.75;;;6.70;99.90;;;;;;5006021;28;20583;-48
2022/01/29 02:26:56;;;;;;;35.05;17.98;;;6.70;99.90;;;;;;5005776;28;20045;-47
2022/01/29 02:29:22;;;;;;;36.83;17.98;;;6.80;99.90;;;;;;5007465;28;20069;-47
2022/01/29 02:31:50;;;;;;;41.33;19.75;;;6.80;99.90;;;;;;5007726;28;20163;-47
2022/01/29 02:34:17;;;;;;;42.55;19.00;;;6.70;99.90;;;;;;5007669;28;20042;-47
2022/01/29 02:36:58;;;;;;;35.42;17.10;;;6.70;99.90;;;;;;5007064;28;20057;-48
2022/01/29 02:39:24;;;;;;;34.75;17.20;;;6.80;99.90;;;;;;4995820;28;20050;-46
2022/01/29 02:41:56;;;;;;;40.55;19.48;;;6.80;99.90;;;;;;5005347;28;20038;-47
2022/01/29 02:44:23;;;;;;;39.67;18.92;;;6.80;99.90;;;;;;5006429;28;20050;-47
2022/01/29 02:46:56;;;;;;;38.15;18.05;;;6.90;99.90;;;;;;5008013;28;20058;-50
2022/01/29 02:49:24;;;;;;;34.22;18.80;;;6.90;99.90;;;;;;5009166;28;20046;-50
2022/01/29 02:51:55;;;;;;;46.38;18.80;;;6.90;99.90;;;;;;4989082;28;20654;-49
2022/01/29 02:54:23;;;;;;;52.05;19.20;;;7.00;99.90;;;;;;4989108;28;20519;-47
2022/01/29 02:56:54;;;;;;;40.13;18.95;;;7.00;99.90;;;;;;4996714;28;20504;-47
2022/01/29 02:59:20;;;;;;;42.42;19.23;;;6.90;99.90;;;;;;5006567;28;20108;-48
2022/01/29 03:01:46;;;;;;;47.17;20.42;;;7.00;99.90;;;;;;5005941;28;20085;-48
2022/01/29 03:04:12;;;;;;;37.97;19.75;;;7.00;99.90;;;;;;5004748;28;20065;-46
2022/01/29 03:06:39;;;;;;;40.33;19.25;;;7.00;99.90;;;;;;5003461;28;20540;-48
2022/01/29 03:09:06;;;;;;;40.35;18.75;;;7.00;99.90;;;;;;5004711;28;20140;-47
2022/01/29 03:11:35;;;;;;;38.67;17.63;;;7.00;99.90;;;;;;5005459;28;20046;-47
2022/01/29 03:14:01;;;;;;;40.63;19.92;;;7.00;99.90;;;;;;5005929;28;20080;-47
2022/01/29 03:16:27;;;;;;;38.15;18.33;;;7.00;99.90;;;;;;4999832;28;20160;-48
2022/01/29 03:18:59;;;;;;;35.67;18.95;;;7.10;99.90;;;;;;5005423;28;20432;-47
2022/01/29 03:21:30;;;;;;;39.95;18.98;;;7.20;99.90;;;;;;5006222;28;20046;-49
2022/01/29 03:23:55;;;;;;;40.25;18.88;;;7.20;99.90;;;;;;5007234;28;20050;-47
2022/01/29 03:26:21;;;;;;;37.15;21.45;;;7.20;99.90;;;;;;5006431;28;20099;-46
2022/01/29 03:28:51;;;;;;;44.85;22.13;;;7.30;99.90;;;;;;4995057;28;20049;-47
2022/01/29 03:31:17;;;;;;;37.50;19.35;;;7.30;99.90;;;;;;5005878;28;20143;-49
2022/01/29 03:33:42;;;;;;;36.22;20.13;;;7.30;99.90;;;;;;5005576;28;20676;-47
2022/01/29 03:36:08;;;;;;;37.22;21.48;;;7.40;99.90;;;;;;5004546;28;20050;-47
2022/01/29 03:38:45;;;;;;;36.92;18.98;;;7.30;99.90;;;;;;5003434;28;20504;-47
2022/01/29 03:41:13;;;;;;;38.28;19.67;;;7.30;99.90;;;;;;4995554;28;20524;-47
2022/01/29 03:43:45;;;;;;;37.53;20.00;;;7.40;99.90;;;;;;5005410;28;20107;-46
2022/01/29 03:46:11;;;;;;;40.25;20.88;;;7.40;99.90;;;;;;5004249;28;20060;-47
2022/01/29 03:48:40;;;;;;;37.70;20.13;;;7.40;99.90;;;;;;5005705;28;20056;-47
2022/01/29 03:51:10;;;;;;;36.08;19.63;;;7.50;99.90;;;;;;5005402;28;20045;-47
2022/01/29 03:53:41;;;;;;;37.35;21.98;;;7.50;99.90;;;;;;4997945;28;20039;-47
2022/01/29 03:56:07;;;;;;;36.00;20.95;;;7.50;99.90;;;;;;4994172;28;20042;-49
2022/01/29 03:58:33;;;;;;;39.67;20.63;;;7.50;99.90;;;;;;5006186;28;20056;-47
2022/01/29 04:00:58;;;;;;;39.28;20.45;;;7.50;99.90;;;;;;4997669;28;20049;-48
2022/01/29 04:03:24;;;;;;;40.13;19.63;;;7.50;99.90;;;;;;5007749;28;20042;-47
2022/01/29 04:05:50;;;;;;;40.33;20.10;;;7.60;99.90;;;;;;5008793;28;20123;-48
2022/01/29 04:08:17;;;;;;;42.25;21.15;;;7.60;99.90;;;;;;5005300;28;20078;-46
2022/01/29 04:10:44;;;;;;;43.55;20.42;;;7.60;99.90;;;;;;4992597;28;20057;-48
2022/01/29 04:13:12;;;;;;;35.90;21.73;;;7.60;99.90;;;;;;5003290;28;20128;-47
2022/01/29 04:15:41;;;;;;;39.22;20.23;;;7.60;99.90;;;;;;5002409;28;20068;-48
2022/01/29 04:18:06;;;;;;;31.30;20.52;;;7.50;99.90;;;;;;5003634;28;20566;-47
2022/01/29 04:20:32;;;;;;;33.83;19.30;;;7.50;99.90;;;;;;5003304;28;20124;-47
2022/01/29 04:22:58;;;;;;;36.85;19.20;;;7.60;99.90;;;;;;5005615;28;20136;-47
2022/01/29 04:25:24;;;;;;;34.20;19.75;;;7.50;99.90;;;;;;5005905;28;20087;-48
2022/01/29 04:27:50;;;;;;;33.65;19.58;;;7.60;99.90;;;;;;5005163;28;20046;-46
2022/01/29 04:30:29;;;;;;;35.78;17.88;;;7.60;99.90;;;;;;5004353;28;20085;-48
2022/01/29 04:33:45;;;;;;;33.38;20.10;;;7.60;99.90;;;;;;5004913;28;20050;-49
2022/01/29 04:35:46;;;;;;;36.53;19.98;;;7.50;99.90;;;;;;4983827;28;20058;-48
2022/01/29 04:38:11;;;;;;;37.35;20.17;;;7.50;99.90;;;;;;5005340;28;20419;-46
2022/01/29 04:40:37;;;;;;;33.25;18.58;;;7.50;99.90;;;;;;5004277;28;20583;-47
2022/01/29 04:43:06;;;;;;;35.05;20.13;;;7.50;99.90;;;;;;5005201;28;20501;-47
2022/01/29 04:45:32;;;;;;;37.25;20.20;;;7.50;99.90;;;;;;5004605;28;20056;-48
2022/01/29 04:47:58;;;;;;;43.38;20.52;;;7.50;99.90;;;;;;5003804;28;20064;-47
2022/01/29 04:50:25;;;;;;;31.67;19.80;;;7.50;99.90;;;;;;4994591;28;20050;-46
2022/01/29 04:52:50;;;;;;;36.50;19.25;;;7.50;99.90;;;;;;5001535;28;20052;-47
2022/01/29 04:55:16;;;;;;;38.35;19.98;;;7.50;99.90;;;;;;5003990;28;20053;-47
2022/01/29 04:57:42;;;;;;;34.22;18.70;;;7.50;99.90;;;;;;5004674;28;20548;-47
2022/01/29 05:00:19;;;;;;;34.78;19.90;;;7.50;99.90;;;;;;5004458;28;20054;-48
2022/01/29 05:02:46;;;;;;;30.20;18.50;;;7.50;99.90;;;;;;5004384;28;20124;-50
2022/01/29 05:05:12;;;;;;;35.35;19.08;;;7.50;99.90;;;;;;4996019;28;20054;-47
2022/01/29 05:07:47;;;;;;;30.85;19.10;;;7.50;99.90;;;;;;5001079;28;20085;-47
2022/01/29 05:10:14;;;;;;;29.98;18.35;;;7.50;99.90;;;;;;4986909;28;20088;-48
2022/01/29 05:12:52;;;;;;;33.60;19.08;;;7.50;99.90;;;;;;5001733;28;20046;-50
2022/01/29 05:29:07;;;;;;;36.75;18.63;;;7.50;99.90;;;;;;4986248;28;20061;-47
2022/01/29 05:31:39;;;;;;;34.97;17.52;;;7.50;99.90;;;;;;4989651;28;20408;-47
2022/01/29 05:34:05;;;;;;;32.47;17.80;;;7.50;99.90;;;;;;4995980;28;20052;-47
2022/01/29 05:36:31;;;;;;;36.88;18.80;;;7.50;99.90;;;;;;5008295;28;20042;-47
2022/01/29 05:38:57;;;;;;;32.53;17.48;;;7.50;99.90;;;;;;5007710;28;20057;-47
2022/01/29 05:41:23;;;;;;;33.88;17.80;;;7.60;99.90;;;;;;5005884;28;20630;-48
2022/01/29 05:43:48;;;;;;;32.38;17.85;;;7.50;99.90;;;;;;4977922;28;20137;-46
2022/01/29 05:46:15;;;;;;;33.20;16.40;;;7.60;99.90;;;;;;5008340;28;20128;-47
2022/01/29 05:48:43;;;;;;;26.27;16.80;;;7.60;99.90;;;;;;5008773;28;20068;-48
2022/01/29 05:51:09;;;;;;;33.83;16.70;;;7.50;99.90;;;;;;5006428;28;20058;-46
2022/01/29 05:53:35;;;;;;;31.63;16.52;;;7.60;99.90;;;;;;4988403;28;20489;-47
2022/01/29 05:56:01;;;;;;;31.30;17.67;;;7.60;99.90;;;;;;5003620;28;20108;-51
2022/01/29 05:58:33;;;;;;;36.63;17.65;;;7.60;99.90;;;;;;5008121;28;20052;-46
2022/01/29 06:01:04;;;;;;;30.88;16.50;;;7.60;99.90;;;;;;5007070;28;20128;-47
2022/01/29 06:03:30;;;;;;;32.83;17.65;;;7.60;99.90;;;;;;5008441;28;20042;-46
2022/01/29 06:05:56;;;;;;;31.08;16.70;;;7.60;99.90;;;;;;5006125;28;20560;-47
2022/01/29 06:08:22;;;;;;;31.13;16.02;;;7.60;99.90;;;;;;5006235;28;20080;-48
2022/01/29 06:10:49;;;;;;;36.08;17.23;;;7.70;99.90;;;;;;5000327;28;20060;-47
2022/01/29 06:13:20;;;;;;;27.65;16.23;;;7.60;99.90;;;;;;5001133;28;20173;-48
2022/01/29 06:15:49;;;;;;;27.67;14.80;;;7.60;99.90;;;;;;5005195;28;20053;-47
2022/01/29 06:18:19;;;;;;;27.48;15.90;;;7.60;99.90;;;;;;5007683;28;20386;-50
2022/01/29 06:20:50;;;;;;;25.08;15.23;;;7.70;99.90;;;;;;4998129;28;20220;-48
2022/01/29 06:23:20;;;;;;;27.85;15.73;;;7.60;99.90;;;;;;4997312;28;20053;-47
2022/01/29 06:25:56;;;;;;;25.90;15.85;;;7.70;99.90;;;;;;5010048;28;20042;-49
2022/01/29 06:28:24;;;;;;;27.52;15.80;;;7.80;99.90;;;;;;5009062;28;20061;-50
2022/01/29 06:30:49;;;;;;;19.52;14.05;;;7.80;99.90;;;;;;5007156;28;20571;-49
2022/01/29 06:33:15;;;;;;;25.35;15.27;;;7.90;99.90;;;;;;5008494;28;20061;-47
2022/01/29 06:35:43;;;;;;;26.02;15.05;;;7.90;99.90;;;;;;5005153;28;20509;-47
2022/01/29 06:38:25;;;;;;;30.83;14.68;;;8.00;99.90;;;;;;5006049;28;20132;-47
2022/01/29 06:40:51;;;;;;;18.23;13.70;;;8.00;99.90;;;;;;5004927;28;21089;-47
2022/01/29 06:43:17;;;;;;;24.50;14.70;;;8.10;99.90;;;;;;4998851;28;20501;-47
2022/01/29 06:45:52;;;;;;;22.73;13.23;;;8.10;99.90;;;;;;5006503;28;20107;-49
2022/01/29 06:48:27;;;;;;;22.77;13.90;;;8.10;99.90;;;;;;4995999;28;20077;-47
2022/01/29 06:50:52;;;;;;;24.58;13.95;;;8.10;99.90;;;;;;5006639;28;20046;-46
2022/01/29 06:53:30;;;;;;;19.85;13.45;;;8.20;99.90;;;;;;5007495;28;20100;-50
2022/01/29 06:55:56;;;;;;;19.75;13.95;;;8.20;99.90;;;;;;5005680;28;20081;-46
2022/01/29 06:58:21;;;;;;;29.00;13.93;;;8.20;99.90;;;;;;5005132;28;20485;-49
2022/01/29 07:00:50;;;;;;;24.45;13.05;;;8.30;99.90;;;;;;5006484;28;20081;-50
2022/01/29 07:03:21;;;;;;;21.83;14.48;;;8.20;99.90;;;;;;4995207;28;20408;-46
2022/01/29 07:05:50;;;;;;;26.67;14.40;;;8.20;99.90;;;;;;4999567;28;20559;-48
2022/01/29 07:08:16;;;;;;;23.58;12.98;;;8.20;99.90;;;;;;4996298;28;20452;-49
2022/01/29 07:10:44;;;;;;;26.67;14.25;;;8.10;99.90;;;;;;4998931;28;20103;-46
2022/01/29 07:13:22;;;;;;;25.13;13.30;;;8.00;99.90;;;;;;4988937;28;20054;-47
2022/01/29 07:15:48;;;;;;;22.77;12.68;;;8.00;99.90;;;;;;5003468;28;20419;-48
2022/01/29 07:18:20;;;;;;;23.73;12.90;;;8.00;99.90;;;;;;5000479;28;20048;-50
2022/01/29 07:20:58;;;;;;;25.48;14.05;;;8.00;99.90;;;;;;5003069;28;20046;-47
2022/01/29 07:23:23;;;;;;;27.30;12.88;;;7.90;99.90;;;;;;5002214;28;20123;-46
2022/01/29 07:25:49;;;;;;;25.48;12.88;;;7.90;99.90;;;;;;5006157;28;20053;-47
2022/01/29 07:28:15;;;;;;;24.48;12.30;;;7.80;99.90;;;;;;5007216;28;20053;-47
2022/01/29 07:30:41;;;;;;;23.17;12.82;;;7.80;99.90;;;;;;4994114;28;20088;-47
2022/01/29 07:33:07;;;;;;;22.60;12.82;;;7.80;99.90;;;;;;5000830;28;20119;-47
2022/01/29 07:35:35;;;;;;;20.20;11.73;;;7.80;99.90;;;;;;5009193;28;20052;-48
2022/01/29 07:38:01;;;;;;;22.48;12.40;;;7.80;99.90;;;;;;5007311;28;20092;-48
2022/01/29 07:40:27;;;;;;;28.40;12.75;;;7.80;99.90;;;;;;5008033;28;20053;-47
2022/01/29 07:42:52;;;;;;;22.60;11.98;;;7.80;99.90;;;;;;5008624;28;20042;-51
2022/01/29 07:45:21;;;;;;;23.98;13.50;;;7.80;99.90;;;;;;5006352;28;20053;-47
2022/01/29 07:47:47;;;;;;;21.20;11.75;;;7.70;99.90;;;;;;5006937;28;20045;-47
2022/01/29 07:50:13;;;;;;;25.90;12.68;;;7.70;99.90;;;;;;5004281;28;20057;-48
2022/01/29 07:52:41;;;;;;;28.58;15.00;;;7.80;99.90;;;;;;5005693;28;20132;-47
2022/01/29 07:55:07;;;;;;;29.55;15.05;;;7.70;99.90;;;;;;5005773;28;20052;-47
2022/01/29 07:57:33;;;;;;;23.15;12.55;;;7.70;99.90;;;;;;5005051;28;20053;-48
2022/01/29 07:59:59;;;;;;;28.15;16.25;;;7.80;99.90;;;;;;5005126;28;20095;-46
2022/01/29 08:02:24;;;;;;;32.60;22.15;;;7.80;99.90;;;;;;5004656;28;20096;-48
2022/01/29 08:04:50;;;;;;;29.80;17.13;;;7.80;99.90;;;;;;5002493;28;20056;-47
2022/01/29 08:07:16;;;;;;;30.40;19.42;;;7.80;99.90;;;;;;5000838;28;20510;-47
2022/01/29 08:09:42;;;;;;;32.28;22.10;;;7.80;99.90;;;;;;4996061;28;20076;-48
2022/01/29 08:12:08;;;;;;;21.23;12.50;;;7.90;99.90;;;;;;5000890;28;20587;-46
2022/01/29 08:14:34;;;;;;;20.88;11.80;;;7.90;99.90;;;;;;4999812;28;20137;-48
2022/01/29 08:16:59;;;;;;;23.20;12.65;;;7.90;99.90;;;;;;5000882;28;20415;-46
2022/01/29 08:19:25;;;;;;;23.70;12.40;;;8.00;99.90;;;;;;4999216;28;20171;-47
2022/01/29 08:21:51;;;;;;;23.80;13.25;;;7.90;99.90;;;;;;5001973;28;20053;-46
2022/01/29 08:24:17;;;;;;;24.52;16.35;;;8.00;99.90;;;;;;5001623;28;20076;-47
2022/01/29 08:26:42;;;;;;;23.48;16.08;;;8.00;99.90;;;;;;5011650;28;20053;-48
2022/01/29 08:29:08;;;;;;;35.47;20.95;;;8.00;99.90;;;;;;4999376;28;20050;-48
2022/01/29 08:31:34;;;;;;;24.25;13.68;;;8.00;99.90;;;;;;5001179;28;20038;-49
2022/01/29 08:34:03;;;;;;;23.50;12.10;;;8.10;99.90;;;;;;5004213;28;20428;-47
2022/01/29 08:36:34;;;;;;;23.65;11.05;;;8.10;99.90;;;;;;5003262;28;20643;-49
2022/01/29 08:39:00;;;;;;;23.05;11.52;;;8.10;99.90;;;;;;5003259;28;20076;-47
2022/01/29 08:41:25;;;;;;;28.13;12.80;;;8.10;99.90;;;;;;4999513;28;20046;-46
2022/01/29 08:43:52;;;;;;;19.52;9.65;;;8.20;99.90;;;;;;4996387;28;20046;-48
2022/01/29 08:46:18;;;;;;;24.45;10.63;;;8.20;99.90;;;;;;4997851;28;20194;-47
2022/01/29 08:48:44;;;;;;;21.42;9.60;;;8.20;99.90;;;;;;5002055;28;20644;-47
2022/01/29 08:51:09;;;;;;;23.13;9.93;;;8.20;99.90;;;;;;5003635;28;20473;-48
2022/01/29 08:53:35;;;;;;;27.58;12.43;;;8.30;99.90;;;;;;4991108;28;20139;-49
2022/01/29 08:56:01;;;;;;;22.75;9.60;;;8.30;99.90;;;;;;5001699;28;20093;-49
2022/01/29 08:58:27;;;;;;;21.10;8.82;;;8.30;99.90;;;;;;5000570;28;20054;-50
2022/01/29 09:00:53;;;;;;;19.60;9.07;;;8.30;99.90;;;;;;4999991;28;20045;-49
2022/01/29 09:03:25;;;;;;;22.27;9.10;;;8.30;99.90;;;;;;5001218;28;20541;-47
2022/01/29 09:05:50;;;;;;;18.88;7.75;;;8.30;99.90;;;;;;5004468;28;20085;-47
2022/01/29 09:08:17;;;;;;;20.33;8.88;;;8.30;99.90;;;;;;5002214;28;20599;-46
2022/01/29 09:10:43;;;;;;;23.38;8.02;;;8.30;99.90;;;;;;5006336;28;20046;-47
2022/01/29 09:13:11;;;;;;;13.05;6.63;;;8.40;99.90;;;;;;5002450;28;20515;-47
2022/01/29 09:15:37;;;;;;;20.20;6.85;;;8.40;99.90;;;;;;5006412;28;20463;-47
2022/01/29 09:18:03;;;;;;;18.67;7.68;;;8.40;99.90;;;;;;5005993;28;20412;-47
2022/01/29 09:20:29;;;;;;;15.05;6.75;;;8.50;99.90;;;;;;5006790;28;20056;-46
2022/01/29 09:22:55;;;;;;;17.00;7.85;;;8.50;99.90;;;;;;5006193;28;20038;-48
2022/01/29 09:25:31;;;;;;;11.25;5.88;;;8.60;99.90;;;;;;5006419;28;20041;-47
2022/01/29 09:27:57;;;;;;;15.65;6.95;;;8.60;99.90;;;;;;5008032;28;20504;-46
2022/01/29 09:30:29;;;;;;;18.15;7.25;;;8.50;99.90;;;;;;5009121;28;20052;-47
2022/01/29 09:33:00;;;;;;;15.00;6.68;;;8.60;99.90;;;;;;5010614;28;20048;-46
2022/01/29 09:35:27;;;;;;;22.38;10.05;;;8.60;99.90;;;;;;5010895;28;20080;-47
2022/01/29 09:38:00;;;;;;;18.42;8.27;;;8.60;99.90;;;;;;5009774;28;20060;-49
2022/01/29 09:40:42;;;;;;;28.13;15.40;;;8.60;99.90;;;;;;5011984;28;20535;-47
2022/01/29 09:43:21;;;;;;;34.20;23.90;;;8.70;99.90;;;;;;5010890;28;20050;-47
2022/01/29 09:45:51;;;;;;;23.75;12.63;;;8.70;99.90;;;;;;4992711;28;20386;-48
2022/01/29 09:48:22;;;;;;;10.73;6.03;;;8.70;99.90;;;;;;4992797;28;20050;-51
2022/01/29 09:50:49;;;;;;;18.83;8.50;;;8.80;99.90;;;;;;4992333;28;20061;-47
2022/01/29 09:53:15;;;;;;;16.90;6.20;;;8.80;99.90;;;;;;4991142;28;20050;-48
2022/01/29 09:55:42;;;;;;;16.55;5.47;;;8.80;99.90;;;;;;4991878;28;20095;-49
2022/01/29 09:58:07;;;;;;;15.30;4.88;;;8.80;99.90;;;;;;4991903;28;20062;-48
2022/01/29 10:00:45;;;;;;;16.90;7.68;;;8.80;99.90;;;;;;4991855;28;20073;-48
2022/01/29 10:03:11;;;;;;;17.27;4.93;;;8.80;99.90;;;;;;4992204;28;20038;-49
2022/01/29 10:05:53;;;;;;;14.52;4.50;;;8.90;99.90;;;;;;4993340;28;20846;-48
2022/01/29 10:08:20;;;;;;;11.60;4.70;;;8.90;99.90;;;;;;4991905;28;20076;-47
2022/01/29 10:11:02;;;;;;;11.25;4.63;;;8.90;99.90;;;;;;4992493;28;20061;-48
2022/01/29 10:13:37;;;;;;;13.82;4.50;;;8.90;99.90;;;;;;5012136;28;20038;-48
2022/01/29 10:16:20;;;;;;;15.40;6.00;;;8.90;99.90;;;;;;5003834;28;20060;-46
2022/01/29 10:19:07;;;;;;;15.02;5.00;;;9.00;99.90;;;;;;5010146;28;20111;-47
2022/01/29 10:21:41;;;;;;;20.67;9.05;;;9.10;99.90;;;;;;5007685;28;20674;-47
2022/01/29 10:24:19;;;;;;;12.88;4.53;;;9.10;99.90;;;;;;4996340;28;20056;-48
2022/01/29 10:26:52;;;;;;;14.50;7.05;;;9.10;99.90;;;;;;5007333;28;20053;-47
2022/01/29 10:29:23;;;;;;;18.90;11.90;;;9.20;99.90;;;;;;5007540;28;20088;-47
2022/01/29 10:32:07;;;;;;;14.55;6.18;;;9.20;99.90;;;;;;5009718;28;20103;-48
2022/01/29 10:34:35;;;;;;;16.10;5.60;;;9.40;99.90;;;;;;5008983;28;20038;-50
2022/01/29 10:37:21;;;;;;;18.10;7.47;;;9.40;99.90;;;;;;5007974;28;20038;-47
2022/01/29 10:40:30;;;;;;;18.13;8.73;;;9.50;99.90;;;;;;5001662;28;20512;-47
2022/01/29 10:43:06;;;;;;;16.40;5.95;;;9.60;99.90;;;;;;5021206;28;20085;-46
2022/01/29 10:45:37;;;;;;;17.83;6.47;;;9.60;99.90;;;;;;5007522;28;20034;-49
2022/01/29 10:48:12;;;;;;;14.77;4.05;;;9.70;99.90;;;;;;5004719;28;20096;-47
2022/01/29 10:51:12;;;;;;;11.73;4.57;;;9.70;99.90;;;;;;5006029;28;20045;-47
2022/01/29 10:53:39;;;;;;;11.77;5.07;;;9.80;99.90;;;;;;5004377;28;20049;-48
2022/01/29 10:56:04;;;;;;;14.45;5.80;;;9.80;99.90;;;;;;5002530;28;20058;-47
2022/01/29 10:58:43;;;;;;;17.75;4.45;;;9.90;99.90;;;;;;4999242;28;20122;-46
2022/01/29 11:01:16;;;;;;;18.20;8.40;;;10.00;99.90;;;;;;5000711;28;20100;-46
2022/01/29 11:03:43;;;;;;;14.82;3.97;;;10.10;99.90;;;;;;5003342;28;20129;-48
2022/01/29 11:06:13;;;;;;;10.98;5.00;;;10.10;99.90;;;;;;5002965;28;20504;-46
2022/01/29 11:08:40;;;;;;;13.48;5.88;;;10.20;99.90;;;;;;5003586;28;20144;-46
2022/01/29 11:11:09;;;;;;;13.25;8.88;;;10.20;99.90;;;;;;4993507;28;20054;-49
2022/01/29 11:13:35;;;;;;;9.52;4.35;;;10.20;99.90;;;;;;5007576;28;20484;-49
2022/01/29 11:16:03;;;;;;;15.68;7.70;;;10.20;99.90;;;;;;4990893;28;20137;-47
2022/01/29 11:18:31;;;;;;;16.92;7.10;;;10.20;99.90;;;;;;4997554;28;20085;-47
2022/01/29 11:20:57;;;;;;;12.38;6.40;;;10.20;99.90;;;;;;5002659;28;20076;-49
2022/01/29 11:23:33;;;;;;;10.55;4.45;;;10.20;99.90;;;;;;5000209;28;20145;-50
2022/01/29 11:26:00;;;;;;;14.90;4.03;;;10.10;99.90;;;;;;4996114;28;20078;-50
2022/01/29 11:28:29;;;;;;;9.25;2.88;;;10.10;99.90;;;;;;5001893;28;20058;-48
2022/01/29 11:31:13;;;;;;;10.70;3.63;;;10.10;99.90;;;;;;4995732;28;20052;-47
2022/01/29 11:33:57;;;;;;;12.82;4.47;;;10.10;99.90;;;;;;5001034;28;20054;-47
2022/01/29 11:36:48;;;;;;;9.27;3.45;;;10.20;99.90;;;;;;5001532;28;20487;-47
2022/01/29 11:39:28;;;;;;;12.30;3.92;;;10.30;99.90;;;;;;4992617;28;20062;-47
2022/01/29 11:42:13;;;;;;;9.80;3.53;;;10.40;99.90;;;;;;4996924;28;20054;-49
2022/01/29 11:44:40;;;;;;;10.10;3.08;;;10.50;99.90;;;;;;5001277;28;20137;-50
2022/01/29 11:47:25;;;;;;;5.05;2.20;;;10.60;99.90;;;;;;5000540;28;20546;-49
2022/01/29 11:50:20;;;;;;;10.90;3.15;;;10.70;99.90;;;;;;5000178;28;20417;-48
2022/01/29 11:52:57;;;;;;;11.15;3.55;;;10.80;99.90;;;;;;4998390;28;20054;-49
2022/01/29 11:55:33;;;;;;;9.82;3.15;;;10.80;99.90;;;;;;4999905;28;20050;-48
2022/01/29 11:58:27;;;;;;;8.52;4.18;;;10.80;99.90;;;;;;5002884;28;20492;-49
2022/01/29 12:00:54;;;;;;;9.68;3.45;;;10.80;99.90;;;;;;4999262;28;20045;-46
2022/01/29 12:06:26;;;;;;;14.63;6.70;;;10.70;99.90;;;;;;4999510;28;20053;-48
2022/01/29 12:09:10;;;;;;;12.75;4.05;;;10.80;99.90;;;;;;4991762;28;20539;-47
2022/01/29 12:11:41;;;;;;;10.20;4.40;;;10.80;99.90;;;;;;4993917;28;20046;-49
2022/01/29 12:14:13;;;;;;;8.90;3.30;;;10.80;99.90;;;;;;5001494;28;20659;-47
2022/01/29 12:16:58;;;;;;;15.88;7.13;;;10.90;99.90;;;;;;5003349;28;20046;-47
2022/01/29 12:19:38;;;;;;;13.85;6.28;;;11.00;99.90;;;;;;4994116;28;20125;-48
2022/01/29 12:22:21;;;;;;;11.95;5.30;;;10.90;99.90;;;;;;4997683;28;20125;-46
2022/01/29 12:24:58;;;;;;;11.98;5.90;;;11.00;99.90;;;;;;5006747;28;20465;-46
2022/01/29 12:27:55;;;;;;;11.02;4.90;;;11.00;99.90;;;;;;5003687;28;20097;-48
2022/01/29 12:30:24;;;;;;;13.82;5.13;;;11.10;99.90;;;;;;5005297;28;20054;-48
2022/01/29 12:32:59;;;;;;;21.05;15.38;;;11.10;99.90;;;;;;4997070;28;20412;-49
2022/01/29 12:35:54;;;;;;;19.40;11.35;;;11.10;99.90;;;;;;4996284;28;20085;-47
2022/01/29 12:38:35;;;;;;;11.30;4.07;;;11.10;99.90;;;;;;5000719;28;20599;-47
2022/01/29 12:41:07;;;;;;;14.50;4.15;;;11.00;99.90;;;;;;4996186;28;20046;-47
2022/01/29 12:44:05;;;;;;;15.50;6.43;;;11.00;99.90;;;;;;5003088;28;20085;-47
2022/01/29 12:46:31;;;;;;;10.73;2.83;;;11.00;99.90;;;;;;4991739;28;20053;-45
2022/01/29 12:48:59;;;;;;;12.40;3.55;;;11.00;99.90;;;;;;5003706;28;20588;-46
2022/01/29 12:51:24;;;;;;;14.95;3.50;;;11.00;99.90;;;;;;5004602;28;20082;-46
2022/01/29 12:54:09;;;;;;;11.57;3.75;;;10.90;99.90;;;;;;5000769;28;20548;-47
2022/01/29 12:56:38;;;;;;;18.98;4.15;;;10.80;99.90;;;;;;5001299;28;20056;-47
2022/01/29 12:59:08;;;;;;;13.43;3.22;;;10.70;99.90;;;;;;5003184;28;20300;-47
2022/01/29 13:01:35;;;;;;;10.25;3.15;;;10.60;99.90;;;;;;4992792;28;20049;-47
2022/01/29 13:04:13;;;;;;;20.95;14.13;;;10.60;99.90;;;;;;4999400;28;20348;-49
2022/01/29 13:06:40;;;;;;;22.13;16.42;;;10.50;99.90;;;;;;4995792;28;20065;-47
2022/01/29 13:09:18;;;;;;;14.23;9.63;;;10.40;99.90;;;;;;4998611;28;20050;-48